createdAt,value
2017-06-02T00:08:20.312Z,16.6
2017-06-02T00:18:29.893Z,17.1
2017-06-02T00:28:39.440Z,17.2
2017-06-02T00:38:49.007Z,17
2017-06-02T00:48:58.574Z,17.1
2017-06-02T00:59:08.118Z,16.7
2017-06-02T01:09:17.702Z,16
2017-06-02T01:19:27.280Z,15.7
2017-06-02T01:29:36.929Z,15.3
2017-06-02T01:39:46.621Z,15
2017-06-02T01:49:56.332Z,15
2017-06-02T02:00:06.180Z,14.9
2017-06-02T02:10:16.104Z,14.7
2017-06-02T02:20:26.095Z,14.2
2017-06-02T02:30:36.115Z,14.1
2017-06-02T02:40:45.996Z,14
2017-06-02T02:50:55.885Z,13.7
2017-06-02T03:01:05.787Z,13.5
2017-06-02T03:11:15.768Z,13.5
2017-06-02T03:21:25.713Z,13.3
2017-06-02T03:31:35.673Z,13.3
2017-06-02T03:41:45.651Z,13.5
2017-06-02T03:51:55.538Z,13.5
2017-06-02T04:02:05.312Z,13.6
2017-06-02T04:12:14.987Z,13.8
2017-06-02T04:22:24.579Z,13.7
2017-06-02T04:32:34.007Z,14.6
2017-06-02T04:42:43.295Z,14.9
2017-06-02T04:52:52.511Z,15.6
2017-06-02T05:03:01.635Z,16
2017-06-02T05:13:10.667Z,16.4
2017-06-02T05:23:19.550Z,17.5
2017-06-02T05:33:28.195Z,18
2017-06-02T05:43:36.689Z,17.7
2017-06-02T05:53:45.026Z,18.4
2017-06-02T06:03:53.230Z,19.1
2017-06-02T06:14:01.334Z,19.9
2017-06-02T06:24:09.281Z,19.4
2017-06-02T06:34:17.205Z,19.9
2017-06-02T06:44:24.983Z,20.8
2017-06-02T06:54:32.652Z,21
2017-06-02T07:04:40.209Z,21.7
2017-06-02T07:14:47.748Z,21.2
2017-06-02T07:24:55.328Z,21.8
2017-06-02T07:35:02.834Z,22.3
2017-06-02T07:45:10.215Z,22.1
2017-06-02T07:55:17.616Z,22.4
2017-06-02T08:05:25.038Z,22.7
2017-06-02T08:15:32.467Z,23
2017-06-02T08:25:39.859Z,22.7
2017-06-02T08:35:47.289Z,22.7
2017-06-02T08:45:54.767Z,23.8
2017-06-02T08:56:02.044Z,23.5
2017-06-02T09:06:09.176Z,23.6
2017-06-02T09:16:16.428Z,23.4
2017-06-02T09:26:23.601Z,24.4
2017-06-02T09:36:30.606Z,24.5
2017-06-02T09:46:37.525Z,24.8
2017-06-02T09:56:44.519Z,24.5
2017-06-02T10:06:51.451Z,24.9
2017-06-02T10:16:58.364Z,25.2
2017-06-02T10:27:05.219Z,24.8
2017-06-02T10:37:12.114Z,25.1
2017-06-02T10:47:18.924Z,25
2017-06-02T10:57:25.755Z,24.9
2017-06-02T11:07:32.530Z,25.5
2017-06-02T11:17:39.243Z,26
2017-06-02T11:27:45.979Z,25.5
2017-06-02T11:37:52.710Z,26
2017-06-02T11:47:59.331Z,25.4
2017-06-02T11:58:06.091Z,25.6
2017-06-02T12:08:12.827Z,25.5
2017-06-02T12:18:19.538Z,26.2
2017-06-02T12:28:26.160Z,25.5
2017-06-02T12:38:32.885Z,26
2017-06-02T12:48:39.645Z,26.2
2017-06-02T12:58:46.308Z,26.9
2017-06-02T13:08:52.833Z,26.9
2017-06-02T13:18:59.279Z,26.2
2017-06-02T13:29:05.806Z,27.7
2017-06-02T13:39:12.256Z,27.4
2017-06-02T13:49:18.621Z,27.1
2017-06-02T13:59:24.992Z,28.5
2017-06-02T14:09:31.239Z,26.9
2017-06-02T14:19:37.439Z,26.4
2017-06-02T14:29:43.685Z,27.5
2017-06-02T14:39:49.986Z,26.5
2017-06-02T14:49:56.534Z,26.2
2017-06-02T15:00:03.111Z,26.5
2017-06-02T15:10:09.743Z,26.8
2017-06-02T15:20:16.498Z,26.2
2017-06-02T15:30:23.261Z,26.9
2017-06-02T15:40:29.777Z,27.6
2017-06-02T15:50:36.150Z,27.2
2017-06-02T16:00:42.710Z,26.8
2017-06-02T16:10:49.449Z,26.6
2017-06-02T16:20:56.340Z,26.8
2017-06-02T16:31:03.142Z,26.8
2017-06-02T16:41:09.891Z,26.3
2017-06-02T16:51:16.736Z,26
2017-06-02T17:01:23.834Z,25.8
2017-06-02T17:11:31.346Z,25.6
2017-06-02T17:21:39.065Z,25.7
2017-06-02T17:31:46.871Z,25.6
2017-06-02T17:41:54.754Z,25.5
2017-06-02T17:52:02.629Z,25.4
2017-06-02T18:02:10.506Z,25.3
2017-06-02T18:12:18.461Z,25.2
2017-06-02T18:22:26.502Z,25
2017-06-02T18:32:34.614Z,24.7
2017-06-02T18:42:42.814Z,24.6
2017-06-02T18:52:51.087Z,24.5
2017-06-02T19:02:59.435Z,24.2
2017-06-02T19:13:07.831Z,24
2017-06-02T19:23:16.278Z,23.9
2017-06-02T19:33:24.738Z,23.7
2017-06-02T19:43:33.201Z,23.7
2017-06-02T19:53:41.659Z,23.6
2017-06-02T20:03:50.155Z,23.7
2017-06-02T20:13:58.671Z,23.5
2017-06-02T20:24:07.163Z,22.9
2017-06-02T20:34:15.932Z,22
2017-06-02T20:44:24.325Z,21.5
2017-06-02T20:54:33.009Z,21.3
2017-06-02T21:04:41.742Z,20.9
2017-06-02T21:14:50.533Z,20.5
2017-06-02T21:24:59.385Z,20.3
2017-06-02T21:35:08.270Z,20.1
2017-06-02T21:45:17.232Z,20.1
2017-06-02T21:55:26.203Z,20.1
2017-06-02T22:05:35.231Z,19.7
2017-06-02T22:15:44.330Z,19.7
2017-06-02T22:25:53.397Z,19.5
2017-06-02T22:36:02.482Z,19.4
2017-06-02T22:46:11.601Z,19.3
2017-06-02T22:56:20.838Z,19
2017-06-02T23:06:30.243Z,19.1
2017-06-02T23:16:39.173Z,19
2017-06-02T23:26:48.448Z,19
2017-06-02T23:36:57.784Z,19.1
2017-06-02T23:47:07.103Z,19
2017-06-02T23:57:16.354Z,18.8
